Keewaydin — ZCFL7 — position and weather

sailwx.info

Track history (hours):
 
Tides and Currents Weather Stations Pressure Air Temp Water Temp Dewpoint Dewpoint Depression Visibility Wind Speed Wind Dir Waves Ship Positions

Keewaydin

Last reported at 2014-Jul-24 19:18 UTC. Time now 2014-Jul-25 06:46 UTC.
Position N 41°26' E 002°15'.

Length 34 m; draft 2.7 m.

Type: Sailing vessel. MMSI: 319536000.

Date/timePositionNaut miles runAvg speedWind from/ knotsBaromVisibWave heightAir tempDewpointWater temp
2014-Jul-24 19:18N 41°26' E 002°15'0 0.0
2014-Jul-24 18:34N 41°26' E 002°15'3 3.0
2014-Jul-24 17:31N 41°24' E 002°17'9 9.8
2014-Jul-24 16:33N 41°16' E 002°25'10 9.7
2014-Jul-24 15:34N 41°09' E 002°33'10 9.9
2014-Jul-24 14:34N 41°01' E 002°42'10 9.5
2014-Jul-24 13:33N 40°54' E 002°50'10 9.7
2014-Jul-24 12:33N 40°46' E 002°58'10 9.7
2014-Jul-24 11:33N 40°39' E 003°06'9 9.2
2014-Jul-24 10:33N 40°32' E 003°14'10 9.2
2014-Jul-24 09:29N 40°24' E 003°21'10 9.6
2014-Jul-24 08:27N 40°16' E 003°29'18 9.5
2014-Jul-24 06:33N 40°02' E 003°43'6 6.0
2014-Jul-24 05:29N 39°57' E 003°49'  
Track history (hours):
 
Tides and Currents Weather Stations Pressure Air Temp Water Temp Dewpoint Dewpoint Depression Visibility Wind Speed Wind Dir Waves Ship Positions

Keewaydin

Last reported at 2014-Jul-24 19:18 UTC. Time now 2014-Jul-25 06:46 UTC.
Position N 41°26' E 002°15'.

Length 34 m; draft 2.7 m.

Type: Sailing vessel. MMSI: 319536000.

Date/timePositionNaut miles runAvg speedWind from/ knotsBaromVisibWave heightAir tempDewpointWater temp
2014-Jul-24 19:18N 41°26' E 002°15'0 0.0
2014-Jul-24 18:34N 41°26' E 002°15'3 3.0
2014-Jul-24 17:31N 41°24' E 002°17'9 9.8
2014-Jul-24 16:33N 41°16' E 002°25'10 9.7
2014-Jul-24 15:34N 41°09' E 002°33'10 9.9
2014-Jul-24 14:34N 41°01' E 002°42'10 9.5
2014-Jul-24 13:33N 40°54' E 002°50'10 9.7
2014-Jul-24 12:33N 40°46' E 002°58'10 9.7
2014-Jul-24 11:33N 40°39' E 003°06'9 9.2
2014-Jul-24 10:33N 40°32' E 003°14'10 9.2
2014-Jul-24 09:29N 40°24' E 003°21'10 9.6
2014-Jul-24 08:27N 40°16' E 003°29'18 9.5
2014-Jul-24 06:33N 40°02' E 003°43'6 6.0
2014-Jul-24 05:29N 39°57' E 003°49'  

Dump ship's entire track history